sensor_id;sensor_type;location;lat;lon;timestamp;P1;durP1;ratioP1;P2;durP2;ratioP2
5989;SDS011;14149;53.562;10.032;2022-09-21T00:00:48;9.37;;;4.33;;
5989;SDS011;14149;53.562;10.032;2022-09-21T00:03:14;18.43;;;5.07;;
5989;SDS011;14149;53.562;10.032;2022-09-21T00:05:41;10.17;;;4.83;;
5989;SDS011;14149;53.562;10.032;2022-09-21T00:08:07;10.37;;;4.23;;
5989;SDS011;14149;53.562;10.032;2022-09-21T00:10:35;9.97;;;4.17;;
5989;SDS011;14149;53.562;10.032;2022-09-21T00:13:01;9.70;;;4.47;;
5989;SDS011;14149;53.562;10.032;2022-09-21T00:15:28;17.23;;;5.20;;
5989;SDS011;14149;53.562;10.032;2022-09-21T00:17:55;9.13;;;4.67;;
5989;SDS011;14149;53.562;10.032;2022-09-21T00:20:21;13.67;;;4.50;;
5989;SDS011;14149;53.562;10.032;2022-09-21T00:22:48;12.00;;;5.37;;
5989;SDS011;14149;53.562;10.032;2022-09-21T00:25:15;10.43;;;4.40;;
5989;SDS011;14149;53.562;10.032;2022-09-21T00:27:41;12.87;;;5.70;;
5989;SDS011;14149;53.562;10.032;2022-09-21T00:30:07;10.90;;;4.27;;
5989;SDS011;14149;53.562;10.032;2022-09-21T00:32:35;10.30;;;4.20;;
5989;SDS011;14149;53.562;10.032;2022-09-21T00:35:02;9.77;;;4.60;;
5989;SDS011;14149;53.562;10.032;2022-09-21T00:37:28;12.70;;;4.93;;
5989;SDS011;14149;53.562;10.032;2022-09-21T00:39:55;11.30;;;4.30;;
5989;SDS011;14149;53.562;10.032;2022-09-21T00:42:31;9.90;;;4.23;;
5989;SDS011;14149;53.562;10.032;2022-09-21T00:44:58;18.47;;;5.87;;
5989;SDS011;14149;53.562;10.032;2022-09-21T00:49:50;12.63;;;4.23;;
5989;SDS011;14149;53.562;10.032;2022-09-21T00:52:18;9.47;;;4.47;;
5989;SDS011;14149;53.562;10.032;2022-09-21T00:57:14;11.60;;;5.07;;
5989;SDS011;14149;53.562;10.032;2022-09-21T00:59:41;8.70;;;4.57;;
5989;SDS011;14149;53.562;10.032;2022-09-21T01:02:08;10.67;;;4.43;;
5989;SDS011;14149;53.562;10.032;2022-09-21T01:04:34;8.83;;;4.23;;
5989;SDS011;14149;53.562;10.032;2022-09-21T01:07:01;11.00;;;4.60;;
5989;SDS011;14149;53.562;10.032;2022-09-21T01:09:29;11.20;;;4.47;;
5989;SDS011;14149;53.562;10.032;2022-09-21T01:12:06;19.30;;;5.00;;
5989;SDS011;14149;53.562;10.032;2022-09-21T01:14:52;7.67;;;4.33;;
5989;SDS011;14149;53.562;10.032;2022-09-21T01:17:35;9.70;;;4.10;;
5989;SDS011;14149;53.562;10.032;2022-09-21T01:30:59;12.73;;;4.43;;
5989;SDS011;14149;53.562;10.032;2022-09-21T01:33:31;9.13;;;3.90;;
5989;SDS011;14149;53.562;10.032;2022-09-21T01:36:00;9.67;;;4.60;;
5989;SDS011;14149;53.562;10.032;2022-09-21T01:38:30;12.90;;;4.27;;
5989;SDS011;14149;53.562;10.032;2022-09-21T01:40:59;9.13;;;4.20;;
5989;SDS011;14149;53.562;10.032;2022-09-21T01:43:29;9.90;;;4.80;;
5989;SDS011;14149;53.562;10.032;2022-09-21T01:45:56;12.57;;;4.53;;
5989;SDS011;14149;53.562;10.032;2022-09-21T01:48:26;8.60;;;4.20;;
5989;SDS011;14149;53.562;10.032;2022-09-21T01:50:54;9.40;;;4.70;;
5989;SDS011;14149;53.562;10.032;2022-09-21T01:53:31;10.73;;;4.20;;
5989;SDS011;14149;53.562;10.032;2022-09-21T01:56:03;10.63;;;4.30;;
5989;SDS011;14149;53.562;10.032;2022-09-21T01:58:45;9.10;;;4.80;;
5989;SDS011;14149;53.562;10.032;2022-09-21T02:01:14;9.60;;;4.50;;
5989;SDS011;14149;53.562;10.032;2022-09-21T02:03:42;9.20;;;4.17;;
5989;SDS011;14149;53.562;10.032;2022-09-21T02:06:10;10.40;;;4.57;;
5989;SDS011;14149;53.562;10.032;2022-09-21T02:08:36;9.77;;;4.10;;
5989;SDS011;14149;53.562;10.032;2022-09-21T02:11:03;11.00;;;4.60;;
5989;SDS011;14149;53.562;10.032;2022-09-21T02:13:30;9.10;;;4.40;;
5989;SDS011;14149;53.562;10.032;2022-09-21T02:21:30;8.77;;;4.50;;
5989;SDS011;14149;53.562;10.032;2022-09-21T02:26:33;15.70;;;5.30;;
5989;SDS011;14149;53.562;10.032;2022-09-21T02:29:06;11.60;;;4.57;;
5989;SDS011;14149;53.562;10.032;2022-09-21T02:39:11;9.90;;;4.60;;
5989;SDS011;14149;53.562;10.032;2022-09-21T02:41:51;9.87;;;4.73;;
5989;SDS011;14149;53.562;10.032;2022-09-21T02:44:20;15.07;;;4.73;;
5989;SDS011;14149;53.562;10.032;2022-09-21T02:46:52;10.47;;;4.70;;
5989;SDS011;14149;53.562;10.032;2022-09-21T02:52:13;9.70;;;4.10;;
5989;SDS011;14149;53.562;10.032;2022-09-21T02:54:40;9.60;;;4.03;;
5989;SDS011;14149;53.562;10.032;2022-09-21T02:57:08;8.60;;;4.67;;
5989;SDS011;14149;53.562;10.032;2022-09-21T02:59:37;9.70;;;4.60;;
5989;SDS011;14149;53.562;10.032;2022-09-21T03:02:03;9.77;;;4.70;;
5989;SDS011;14149;53.562;10.032;2022-09-21T03:04:31;10.97;;;4.90;;
5989;SDS011;14149;53.562;10.032;2022-09-21T03:06:57;9.40;;;4.70;;
5989;SDS011;14149;53.562;10.032;2022-09-21T03:09:23;10.00;;;4.53;;
5989;SDS011;14149;53.562;10.032;2022-09-21T03:11:50;9.13;;;4.73;;
5989;SDS011;14149;53.562;10.032;2022-09-21T03:14:16;11.63;;;4.50;;
5989;SDS011;14149;53.562;10.032;2022-09-21T03:16:43;10.33;;;4.73;;
5989;SDS011;14149;53.562;10.032;2022-09-21T03:19:09;12.10;;;4.40;;
5989;SDS011;14149;53.562;10.032;2022-09-21T03:21:36;13.00;;;4.97;;
5989;SDS011;14149;53.562;10.032;2022-09-21T03:24:02;7.50;;;4.60;;
5989;SDS011;14149;53.562;10.032;2022-09-21T03:26:28;7.30;;;4.17;;
5989;SDS011;14149;53.562;10.032;2022-09-21T03:28:54;9.37;;;4.90;;
5989;SDS011;14149;53.562;10.032;2022-09-21T03:31:21;10.33;;;4.80;;
5989;SDS011;14149;53.562;10.032;2022-09-21T03:33:47;9.67;;;4.77;;
5989;SDS011;14149;53.562;10.032;2022-09-21T03:36:13;10.30;;;5.23;;
5989;SDS011;14149;53.562;10.032;2022-09-21T03:38:39;9.83;;;4.67;;
5989;SDS011;14149;53.562;10.032;2022-09-21T03:41:06;10.13;;;5.00;;
5989;SDS011;14149;53.562;10.032;2022-09-21T03:43:32;8.87;;;4.13;;
5989;SDS011;14149;53.562;10.032;2022-09-21T03:45:58;12.07;;;4.47;;
5989;SDS011;14149;53.562;10.032;2022-09-21T03:48:24;8.97;;;4.60;;
5989;SDS011;14149;53.562;10.032;2022-09-21T03:50:50;10.50;;;4.40;;
5989;SDS011;14149;53.562;10.032;2022-09-21T03:53:16;9.00;;;4.63;;
5989;SDS011;14149;53.562;10.032;2022-09-21T03:55:43;12.40;;;5.73;;
5989;SDS011;14149;53.562;10.032;2022-09-21T03:58:09;9.60;;;5.03;;
5989;SDS011;14149;53.562;10.032;2022-09-21T04:00:35;11.00;;;5.13;;
5989;SDS011;14149;53.562;10.032;2022-09-21T04:03:03;14.07;;;4.77;;
5989;SDS011;14149;53.562;10.032;2022-09-21T04:05:29;10.10;;;4.53;;
5989;SDS011;14149;53.562;10.032;2022-09-21T04:07:55;11.70;;;4.43;;
5989;SDS011;14149;53.562;10.032;2022-09-21T04:10:21;10.07;;;4.53;;
5989;SDS011;14149;53.562;10.032;2022-09-21T04:12:51;10.07;;;4.47;;
5989;SDS011;14149;53.562;10.032;2022-09-21T04:15:17;16.53;;;5.53;;
5989;SDS011;14149;53.562;10.032;2022-09-21T04:17:44;12.90;;;5.37;;
5989;SDS011;14149;53.562;10.032;2022-09-21T04:20:10;9.67;;;4.97;;
5989;SDS011;14149;53.562;10.032;2022-09-21T04:22:36;11.53;;;5.23;;
5989;SDS011;14149;53.562;10.032;2022-09-21T04:25:03;8.00;;;4.60;;
5989;SDS011;14149;53.562;10.032;2022-09-21T04:27:30;20.87;;;5.83;;
5989;SDS011;14149;53.562;10.032;2022-09-21T04:29:57;10.90;;;5.00;;
5989;SDS011;14149;53.562;10.032;2022-09-21T04:32:23;12.10;;;5.30;;
5989;SDS011;14149;53.562;10.032;2022-09-21T04:34:49;9.83;;;5.10;;
5989;SDS011;14149;53.562;10.032;2022-09-21T04:37:15;15.10;;;5.53;;
5989;SDS011;14149;53.562;10.032;2022-09-21T04:39:41;10.77;;;4.90;;
5989;SDS011;14149;53.562;10.032;2022-09-21T04:42:07;11.07;;;4.90;;
5989;SDS011;14149;53.562;10.032;2022-09-21T04:44:34;10.93;;;5.07;;
5989;SDS011;14149;53.562;10.032;2022-09-21T04:47:00;10.47;;;4.93;;
5989;SDS011;14149;53.562;10.032;2022-09-21T04:49:26;10.90;;;4.97;;
5989;SDS011;14149;53.562;10.032;2022-09-21T04:51:52;9.83;;;5.17;;
5989;SDS011;14149;53.562;10.032;2022-09-21T04:54:18;11.00;;;6.17;;
5989;SDS011;14149;53.562;10.032;2022-09-21T04:56:44;13.13;;;5.37;;
5989;SDS011;14149;53.562;10.032;2022-09-21T04:59:10;11.00;;;5.83;;
5989;SDS011;14149;53.562;10.032;2022-09-21T05:01:36;11.73;;;5.10;;
5989;SDS011;14149;53.562;10.032;2022-09-21T05:04:03;9.70;;;5.67;;
5989;SDS011;14149;53.562;10.032;2022-09-21T05:06:30;10.83;;;5.50;;
5989;SDS011;14149;53.562;10.032;2022-09-21T05:08:57;11.33;;;5.47;;
5989;SDS011;14149;53.562;10.032;2022-09-21T05:11:42;12.10;;;5.60;;
5989;SDS011;14149;53.562;10.032;2022-09-21T05:14:08;11.30;;;6.10;;
5989;SDS011;14149;53.562;10.032;2022-09-21T05:16:35;9.20;;;5.80;;
5989;SDS011;14149;53.562;10.032;2022-09-21T05:19:01;10.87;;;6.13;;
5989;SDS011;14149;53.562;10.032;2022-09-21T05:21:27;12.10;;;6.30;;
5989;SDS011;14149;53.562;10.032;2022-09-21T05:23:55;11.67;;;6.43;;
5989;SDS011;14149;53.562;10.032;2022-09-21T05:26:21;11.73;;;6.03;;
5989;SDS011;14149;53.562;10.032;2022-09-21T05:28:47;14.03;;;6.60;;
5989;SDS011;14149;53.562;10.032;2022-09-21T05:34:04;9.17;;;6.10;;
5989;SDS011;14149;53.562;10.032;2022-09-21T05:36:38;12.73;;;7.03;;
5989;SDS011;14149;53.562;10.032;2022-09-21T05:39:06;11.07;;;6.90;;
5989;SDS011;14149;53.562;10.032;2022-09-21T05:41:32;12.77;;;6.37;;
5989;SDS011;14149;53.562;10.032;2022-09-21T05:43:58;16.23;;;6.50;;
5989;SDS011;14149;53.562;10.032;2022-09-21T05:46:38;12.23;;;7.07;;
5989;SDS011;14149;53.562;10.032;2022-09-21T05:49:08;15.50;;;6.00;;
5989;SDS011;14149;53.562;10.032;2022-09-21T05:51:51;11.70;;;6.00;;
5989;SDS011;14149;53.562;10.032;2022-09-21T05:57:14;10.73;;;6.00;;
5989;SDS011;14149;53.562;10.032;2022-09-21T05:59:50;13.23;;;7.30;;
5989;SDS011;14149;53.562;10.032;2022-09-21T06:04:51;10.80;;;6.40;;
5989;SDS011;14149;53.562;10.032;2022-09-21T06:07:18;16.83;;;6.87;;
5989;SDS011;14149;53.562;10.032;2022-09-21T06:09:44;13.60;;;6.53;;
5989;SDS011;14149;53.562;10.032;2022-09-21T06:12:10;17.60;;;6.70;;
5989;SDS011;14149;53.562;10.032;2022-09-21T06:14:36;13.90;;;6.70;;
5989;SDS011;14149;53.562;10.032;2022-09-21T06:17:03;13.23;;;7.07;;
5989;SDS011;14149;53.562;10.032;2022-09-21T06:19:29;15.50;;;7.80;;
5989;SDS011;14149;53.562;10.032;2022-09-21T06:21:55;17.90;;;6.97;;
5989;SDS011;14149;53.562;10.032;2022-09-21T06:24:21;12.47;;;7.17;;
5989;SDS011;14149;53.562;10.032;2022-09-21T06:26:48;14.53;;;7.77;;
5989;SDS011;14149;53.562;10.032;2022-09-21T06:29:14;15.87;;;8.17;;
5989;SDS011;14149;53.562;10.032;2022-09-21T06:31:41;16.10;;;7.80;;
5989;SDS011;14149;53.562;10.032;2022-09-21T06:34:07;13.10;;;7.60;;
5989;SDS011;14149;53.562;10.032;2022-09-21T06:36:33;13.47;;;8.03;;
5989;SDS011;14149;53.562;10.032;2022-09-21T06:38:59;15.43;;;8.90;;
5989;SDS011;14149;53.562;10.032;2022-09-21T06:41:25;14.87;;;7.90;;
5989;SDS011;14149;53.562;10.032;2022-09-21T06:43:54;19.70;;;8.77;;
5989;SDS011;14149;53.562;10.032;2022-09-21T06:46:21;14.70;;;7.50;;
5989;SDS011;14149;53.562;10.032;2022-09-21T06:48:47;16.00;;;8.37;;
5989;SDS011;14149;53.562;10.032;2022-09-21T06:51:13;19.10;;;10.23;;
5989;SDS011;14149;53.562;10.032;2022-09-21T06:53:39;20.63;;;9.03;;
5989;SDS011;14149;53.562;10.032;2022-09-21T06:56:06;17.70;;;9.13;;
5989;SDS011;14149;53.562;10.032;2022-09-21T06:58:33;19.70;;;9.07;;
5989;SDS011;14149;53.562;10.032;2022-09-21T07:01:03;20.13;;;8.77;;
5989;SDS011;14149;53.562;10.032;2022-09-21T07:03:30;13.30;;;8.13;;
5989;SDS011;14149;53.562;10.032;2022-09-21T07:05:56;20.67;;;9.10;;
5989;SDS011;14149;53.562;10.032;2022-09-21T07:08:22;18.90;;;9.30;;
5989;SDS011;14149;53.562;10.032;2022-09-21T07:10:48;19.40;;;8.40;;
5989;SDS011;14149;53.562;10.032;2022-09-21T07:13:14;15.43;;;9.20;;
5989;SDS011;14149;53.562;10.032;2022-09-21T07:15:42;17.13;;;9.97;;
5989;SDS011;14149;53.562;10.032;2022-09-21T07:18:11;17.63;;;8.37;;
5989;SDS011;14149;53.562;10.032;2022-09-21T07:20:38;16.20;;;9.37;;
5989;SDS011;14149;53.562;10.032;2022-09-21T07:23:08;29.97;;;11.27;;
5989;SDS011;14149;53.562;10.032;2022-09-21T07:25:35;16.23;;;9.63;;
5989;SDS011;14149;53.562;10.032;2022-09-21T07:28:01;21.67;;;10.00;;
5989;SDS011;14149;53.562;10.032;2022-09-21T07:30:27;18.43;;;10.67;;
5989;SDS011;14149;53.562;10.032;2022-09-21T07:32:53;23.03;;;11.77;;
5989;SDS011;14149;53.562;10.032;2022-09-21T07:35:19;21.33;;;10.70;;
5989;SDS011;14149;53.562;10.032;2022-09-21T07:37:45;23.47;;;10.90;;
5989;SDS011;14149;53.562;10.032;2022-09-21T07:40:11;22.50;;;11.20;;
5989;SDS011;14149;53.562;10.032;2022-09-21T07:42:38;22.43;;;10.67;;
5989;SDS011;14149;53.562;10.032;2022-09-21T07:45:04;29.30;;;12.73;;
5989;SDS011;14149;53.562;10.032;2022-09-21T07:47:30;16.40;;;10.23;;
5989;SDS011;14149;53.562;10.032;2022-09-21T07:49:56;23.37;;;10.90;;
5989;SDS011;14149;53.562;10.032;2022-09-21T07:52:22;21.20;;;11.20;;
5989;SDS011;14149;53.562;10.032;2022-09-21T07:54:48;19.17;;;10.40;;
5989;SDS011;14149;53.562;10.032;2022-09-21T07:57:14;15.83;;;9.83;;
5989;SDS011;14149;53.562;10.032;2022-09-21T07:59:59;22.00;;;10.20;;
5989;SDS011;14149;53.562;10.032;2022-09-21T08:02:25;20.60;;;9.80;;
5989;SDS011;14149;53.562;10.032;2022-09-21T08:04:51;19.63;;;10.77;;
5989;SDS011;14149;53.562;10.032;2022-09-21T08:07:18;28.73;;;11.10;;
5989;SDS011;14149;53.562;10.032;2022-09-21T08:09:44;18.77;;;10.13;;
5989;SDS011;14149;53.562;10.032;2022-09-21T08:12:13;18.73;;;10.43;;
5989;SDS011;14149;53.562;10.032;2022-09-21T08:14:41;20.17;;;9.83;;
5989;SDS011;14149;53.562;10.032;2022-09-21T08:17:07;18.90;;;9.67;;
5989;SDS011;14149;53.562;10.032;2022-09-21T08:19:33;18.13;;;10.13;;
5989;SDS011;14149;53.562;10.032;2022-09-21T08:22:00;15.20;;;8.67;;
5989;SDS011;14149;53.562;10.032;2022-09-21T08:24:26;14.97;;;9.63;;
5989;SDS011;14149;53.562;10.032;2022-09-21T08:26:52;18.57;;;10.30;;
5989;SDS011;14149;53.562;10.032;2022-09-21T08:29:19;17.57;;;9.40;;
5989;SDS011;14149;53.562;10.032;2022-09-21T08:31:45;16.90;;;10.10;;
5989;SDS011;14149;53.562;10.032;2022-09-21T08:34:12;18.63;;;7.50;;
5989;SDS011;14149;53.562;10.032;2022-09-21T08:36:38;17.23;;;8.27;;
5989;SDS011;14149;53.562;10.032;2022-09-21T08:39:07;15.97;;;8.33;;
5989;SDS011;14149;53.562;10.032;2022-09-21T08:44:12;11.53;;;5.60;;
5989;SDS011;14149;53.562;10.032;2022-09-21T08:46:38;10.10;;;5.00;;
5989;SDS011;14149;53.562;10.032;2022-09-21T08:49:10;10.37;;;5.00;;
5989;SDS011;14149;53.562;10.032;2022-09-21T08:51:42;9.80;;;4.37;;
5989;SDS011;14149;53.562;10.032;2022-09-21T08:54:33;10.73;;;4.50;;
5989;SDS011;14149;53.562;10.032;2022-09-21T08:56:59;9.07;;;4.77;;
5989;SDS011;14149;53.562;10.032;2022-09-21T08:59:25;9.97;;;4.00;;
5989;SDS011;14149;53.562;10.032;2022-09-21T09:01:53;7.70;;;3.20;;
5989;SDS011;14149;53.562;10.032;2022-09-21T09:07:03;9.57;;;3.53;;
5989;SDS011;14149;53.562;10.032;2022-09-21T09:20:06;11.93;;;3.70;;
5989;SDS011;14149;53.562;10.032;2022-09-21T09:22:42;8.27;;;3.30;;
5989;SDS011;14149;53.562;10.032;2022-09-21T09:25:15;8.40;;;4.00;;
5989;SDS011;14149;53.562;10.032;2022-09-21T09:27:41;8.07;;;3.90;;
5989;SDS011;14149;53.562;10.032;2022-09-21T09:30:17;9.83;;;4.57;;
5989;SDS011;14149;53.562;10.032;2022-09-21T09:33:31;8.00;;;4.40;;
5989;SDS011;14149;53.562;10.032;2022-09-21T09:48:51;7.87;;;3.67;;
5989;SDS011;14149;53.562;10.032;2022-09-21T09:51:19;8.97;;;3.80;;
5989;SDS011;14149;53.562;10.032;2022-09-21T09:53:45;6.97;;;3.50;;
5989;SDS011;14149;53.562;10.032;2022-09-21T09:56:11;11.00;;;4.27;;
5989;SDS011;14149;53.562;10.032;2022-09-21T10:04:03;7.30;;;3.87;;
5989;SDS011;14149;53.562;10.032;2022-09-21T10:06:30;9.00;;;3.83;;
5989;SDS011;14149;53.562;10.032;2022-09-21T10:08:57;7.10;;;3.33;;
5989;SDS011;14149;53.562;10.032;2022-09-21T10:11:23;8.00;;;3.80;;
5989;SDS011;14149;53.562;10.032;2022-09-21T10:14:05;7.63;;;3.47;;
5989;SDS011;14149;53.562;10.032;2022-09-21T10:16:32;10.63;;;3.70;;
5989;SDS011;14149;53.562;10.032;2022-09-21T10:19:04;7.07;;;3.57;;
5989;SDS011;14149;53.562;10.032;2022-09-21T10:21:38;8.23;;;4.20;;
5989;SDS011;14149;53.562;10.032;2022-09-21T10:27:13;7.43;;;3.50;;
5989;SDS011;14149;53.562;10.032;2022-09-21T10:29:41;8.70;;;3.57;;
5989;SDS011;14149;53.562;10.032;2022-09-21T10:34:37;7.60;;;3.20;;
5989;SDS011;14149;53.562;10.032;2022-09-21T10:37:22;8.33;;;2.87;;
5989;SDS011;14149;53.562;10.032;2022-09-21T10:39:49;7.03;;;3.33;;
5989;SDS011;14149;53.562;10.032;2022-09-21T10:42:16;6.67;;;3.03;;
5989;SDS011;14149;53.562;10.032;2022-09-21T10:49:45;7.90;;;3.50;;
5989;SDS011;14149;53.562;10.032;2022-09-21T10:52:11;7.70;;;2.93;;
5989;SDS011;14149;53.562;10.032;2022-09-21T10:54:38;8.27;;;3.40;;
5989;SDS011;14149;53.562;10.032;2022-09-21T10:57:08;6.47;;;2.90;;
5989;SDS011;14149;53.562;10.032;2022-09-21T10:59:35;9.23;;;3.40;;
5989;SDS011;14149;53.562;10.032;2022-09-21T11:02:07;6.20;;;2.90;;
5989;SDS011;14149;53.562;10.032;2022-09-21T11:04:49;8.80;;;3.30;;
5989;SDS011;14149;53.562;10.032;2022-09-21T11:07:18;9.93;;;3.17;;
5989;SDS011;14149;53.562;10.032;2022-09-21T11:10:03;6.23;;;2.97;;
5989;SDS011;14149;53.562;10.032;2022-09-21T11:12:40;7.00;;;2.40;;
5989;SDS011;14149;53.562;10.032;2022-09-21T11:15:18;5.90;;;2.77;;
5989;SDS011;14149;53.562;10.032;2022-09-21T11:25:44;6.97;;;3.30;;
5989;SDS011;14149;53.562;10.032;2022-09-21T11:33:32;6.50;;;2.90;;
5989;SDS011;14149;53.562;10.032;2022-09-21T11:44:42;5.70;;;2.60;;
5989;SDS011;14149;53.562;10.032;2022-09-21T11:49:58;8.33;;;2.93;;
5989;SDS011;14149;53.562;10.032;2022-09-21T11:52:38;9.17;;;2.73;;
5989;SDS011;14149;53.562;10.032;2022-09-21T12:00:06;7.47;;;2.77;;
5989;SDS011;14149;53.562;10.032;2022-09-21T12:08:13;6.07;;;2.80;;
5989;SDS011;14149;53.562;10.032;2022-09-21T12:13:31;5.40;;;2.63;;
5989;SDS011;14149;53.562;10.032;2022-09-21T12:21:32;11.80;;;2.80;;
5989;SDS011;14149;53.562;10.032;2022-09-21T12:24:03;7.80;;;4.00;;
5989;SDS011;14149;53.562;10.032;2022-09-21T12:26:37;6.10;;;2.80;;
5989;SDS011;14149;53.562;10.032;2022-09-21T12:29:09;8.40;;;2.53;;
5989;SDS011;14149;53.562;10.032;2022-09-21T12:31:43;6.30;;;3.00;;
5989;SDS011;14149;53.562;10.032;2022-09-21T12:34:17;5.80;;;2.60;;
5989;SDS011;14149;53.562;10.032;2022-09-21T12:36:46;6.00;;;2.50;;
5989;SDS011;14149;53.562;10.032;2022-09-21T12:39:57;7.00;;;2.60;;
5989;SDS011;14149;53.562;10.032;2022-09-21T12:49:47;6.00;;;2.30;;
5989;SDS011;14149;53.562;10.032;2022-09-21T12:52:20;5.80;;;2.60;;
5989;SDS011;14149;53.562;10.032;2022-09-21T12:54:50;7.00;;;2.70;;
5989;SDS011;14149;53.562;10.032;2022-09-21T12:59:53;7.70;;;3.03;;
5989;SDS011;14149;53.562;10.032;2022-09-21T13:10:20;5.87;;;2.50;;
5989;SDS011;14149;53.562;10.032;2022-09-21T13:12:50;9.30;;;2.97;;
5989;SDS011;14149;53.562;10.032;2022-09-21T13:15:29;6.23;;;2.70;;
5989;SDS011;14149;53.562;10.032;2022-09-21T13:18:00;6.97;;;2.93;;
5989;SDS011;14149;53.562;10.032;2022-09-21T13:20:26;5.80;;;2.90;;
5989;SDS011;14149;53.562;10.032;2022-09-21T13:22:58;6.00;;;2.70;;
5989;SDS011;14149;53.562;10.032;2022-09-21T13:25:25;6.20;;;2.67;;
5989;SDS011;14149;53.562;10.032;2022-09-21T13:27:59;6.43;;;2.87;;
5989;SDS011;14149;53.562;10.032;2022-09-21T13:32:55;7.00;;;2.70;;
5989;SDS011;14149;53.562;10.032;2022-09-21T13:40:49;7.27;;;3.30;;
5989;SDS011;14149;53.562;10.032;2022-09-21T13:43:22;6.13;;;2.90;;
5989;SDS011;14149;53.562;10.032;2022-09-21T13:45:50;6.33;;;2.97;;
5989;SDS011;14149;53.562;10.032;2022-09-21T13:48:26;6.10;;;2.87;;
5989;SDS011;14149;53.562;10.032;2022-09-21T13:50:56;6.70;;;2.80;;
5989;SDS011;14149;53.562;10.032;2022-09-21T13:53:25;7.40;;;3.30;;
5989;SDS011;14149;53.562;10.032;2022-09-21T13:55:53;6.90;;;2.97;;
5989;SDS011;14149;53.562;10.032;2022-09-21T13:58:24;6.40;;;2.77;;
5989;SDS011;14149;53.562;10.032;2022-09-21T14:00:52;7.70;;;3.53;;
5989;SDS011;14149;53.562;10.032;2022-09-21T14:03:31;6.83;;;2.63;;
5989;SDS011;14149;53.562;10.032;2022-09-21T14:06:03;7.50;;;3.20;;
5989;SDS011;14149;53.562;10.032;2022-09-21T14:08:32;7.67;;;2.80;;
5989;SDS011;14149;53.562;10.032;2022-09-21T14:11:00;5.93;;;2.83;;
5989;SDS011;14149;53.562;10.032;2022-09-21T14:13:37;6.17;;;2.80;;
5989;SDS011;14149;53.562;10.032;2022-09-21T14:16:26;7.50;;;3.47;;
5989;SDS011;14149;53.562;10.032;2022-09-21T14:22:06;8.60;;;3.30;;
5989;SDS011;14149;53.562;10.032;2022-09-21T14:24:47;10.87;;;3.70;;
5989;SDS011;14149;53.562;10.032;2022-09-21T14:27:29;6.00;;;2.80;;
5989;SDS011;14149;53.562;10.032;2022-09-21T14:32:35;7.70;;;3.07;;
5989;SDS011;14149;53.562;10.032;2022-09-21T14:35:08;6.90;;;3.00;;
5989;SDS011;14149;53.562;10.032;2022-09-21T14:37:38;8.13;;;2.77;;
5989;SDS011;14149;53.562;10.032;2022-09-21T14:40:15;6.50;;;3.10;;
5989;SDS011;14149;53.562;10.032;2022-09-21T14:42:43;6.43;;;3.00;;
5989;SDS011;14149;53.562;10.032;2022-09-21T14:45:14;5.70;;;2.50;;
5989;SDS011;14149;53.562;10.032;2022-09-21T14:53:16;8.60;;;2.77;;
5989;SDS011;14149;53.562;10.032;2022-09-21T15:00:49;6.20;;;3.17;;
5989;SDS011;14149;53.562;10.032;2022-09-21T15:05:47;6.70;;;2.67;;
5989;SDS011;14149;53.562;10.032;2022-09-21T15:21:42;7.40;;;3.20;;
5989;SDS011;14149;53.562;10.032;2022-09-21T15:24:11;11.20;;;3.13;;
5989;SDS011;14149;53.562;10.032;2022-09-21T15:26:41;6.60;;;2.80;;
5989;SDS011;14149;53.562;10.032;2022-09-21T15:29:10;6.13;;;2.60;;
5989;SDS011;14149;53.562;10.032;2022-09-21T15:31:43;6.67;;;3.20;;
5989;SDS011;14149;53.562;10.032;2022-09-21T15:34:11;6.47;;;2.80;;
5989;SDS011;14149;53.562;10.032;2022-09-21T15:36:38;5.57;;;2.40;;
5989;SDS011;14149;53.562;10.032;2022-09-21T15:39:05;6.47;;;2.73;;
5989;SDS011;14149;53.562;10.032;2022-09-21T15:41:39;6.93;;;2.50;;
5989;SDS011;14149;53.562;10.032;2022-09-21T15:44:20;11.90;;;3.23;;
5989;SDS011;14149;53.562;10.032;2022-09-21T15:46:50;8.27;;;2.90;;
5989;SDS011;14149;53.562;10.032;2022-09-21T15:49:17;7.70;;;3.33;;
5989;SDS011;14149;53.562;10.032;2022-09-21T15:51:46;7.47;;;2.80;;
5989;SDS011;14149;53.562;10.032;2022-09-21T15:57:03;7.50;;;3.27;;
5989;SDS011;14149;53.562;10.032;2022-09-21T15:59:31;6.23;;;2.77;;
5989;SDS011;14149;53.562;10.032;2022-09-21T16:01:58;6.90;;;2.73;;
5989;SDS011;14149;53.562;10.032;2022-09-21T16:04:26;7.33;;;3.00;;
5989;SDS011;14149;53.562;10.032;2022-09-21T16:06:56;6.57;;;2.50;;
5989;SDS011;14149;53.562;10.032;2022-09-21T16:11:53;6.27;;;3.07;;
5989;SDS011;14149;53.562;10.032;2022-09-21T16:14:19;6.13;;;2.93;;
5989;SDS011;14149;53.562;10.032;2022-09-21T16:17:06;7.63;;;3.53;;
5989;SDS011;14149;53.562;10.032;2022-09-21T16:20:03;8.03;;;3.03;;
5989;SDS011;14149;53.562;10.032;2022-09-21T16:22:38;8.07;;;3.07;;
5989;SDS011;14149;53.562;10.032;2022-09-21T16:28:02;8.17;;;3.13;;
5989;SDS011;14149;53.562;10.032;2022-09-21T16:30:51;6.30;;;2.83;;
5989;SDS011;14149;53.562;10.032;2022-09-21T16:36:04;6.00;;;2.40;;
5989;SDS011;14149;53.562;10.032;2022-09-21T16:38:50;7.53;;;2.60;;
5989;SDS011;14149;53.562;10.032;2022-09-21T16:41:20;6.10;;;2.70;;
5989;SDS011;14149;53.562;10.032;2022-09-21T16:43:47;7.20;;;2.93;;
5989;SDS011;14149;53.562;10.032;2022-09-21T16:46:15;7.43;;;2.80;;
5989;SDS011;14149;53.562;10.032;2022-09-21T16:48:41;5.57;;;2.37;;
5989;SDS011;14149;53.562;10.032;2022-09-21T16:51:11;8.77;;;2.70;;
5989;SDS011;14149;53.562;10.032;2022-09-21T16:53:38;7.73;;;2.77;;
5989;SDS011;14149;53.562;10.032;2022-09-21T16:56:04;7.20;;;3.03;;
5989;SDS011;14149;53.562;10.032;2022-09-21T16:58:31;9.40;;;2.77;;
5989;SDS011;14149;53.562;10.032;2022-09-21T17:00:57;6.30;;;2.50;;
5989;SDS011;14149;53.562;10.032;2022-09-21T17:03:23;6.37;;;3.00;;
5989;SDS011;14149;53.562;10.032;2022-09-21T17:05:49;7.50;;;2.73;;
5989;SDS011;14149;53.562;10.032;2022-09-21T17:08:15;7.33;;;3.13;;
5989;SDS011;14149;53.562;10.032;2022-09-21T17:10:42;8.90;;;3.50;;
5989;SDS011;14149;53.562;10.032;2022-09-21T17:13:09;8.70;;;3.83;;
5989;SDS011;14149;53.562;10.032;2022-09-21T17:15:36;7.80;;;3.17;;
5989;SDS011;14149;53.562;10.032;2022-09-21T17:18:05;6.10;;;2.97;;
5989;SDS011;14149;53.562;10.032;2022-09-21T17:20:33;7.57;;;3.20;;
5989;SDS011;14149;53.562;10.032;2022-09-21T17:22:59;8.23;;;3.17;;
5989;SDS011;14149;53.562;10.032;2022-09-21T17:25:27;7.80;;;2.97;;
5989;SDS011;14149;53.562;10.032;2022-09-21T17:27:54;6.87;;;3.20;;
5989;SDS011;14149;53.562;10.032;2022-09-21T17:30:22;7.83;;;3.53;;
5989;SDS011;14149;53.562;10.032;2022-09-21T17:32:49;11.10;;;3.17;;
5989;SDS011;14149;53.562;10.032;2022-09-21T17:35:24;8.27;;;3.40;;
5989;SDS011;14149;53.562;10.032;2022-09-21T17:37:54;12.63;;;4.00;;
5989;SDS011;14149;53.562;10.032;2022-09-21T17:40:20;8.83;;;4.70;;
5989;SDS011;14149;53.562;10.032;2022-09-21T17:42:51;9.43;;;4.33;;
5989;SDS011;14149;53.562;10.032;2022-09-21T17:45:34;9.13;;;5.13;;
5989;SDS011;14149;53.562;10.032;2022-09-21T17:48:03;11.87;;;5.40;;
5989;SDS011;14149;53.562;10.032;2022-09-21T17:50:30;13.90;;;6.07;;
5989;SDS011;14149;53.562;10.032;2022-09-21T17:52:56;13.83;;;6.20;;
5989;SDS011;14149;53.562;10.032;2022-09-21T17:55:44;12.00;;;7.40;;
5989;SDS011;14149;53.562;10.032;2022-09-21T18:03:15;11.43;;;6.43;;
5989;SDS011;14149;53.562;10.032;2022-09-21T18:05:44;10.50;;;5.73;;
5989;SDS011;14149;53.562;10.032;2022-09-21T18:08:11;17.30;;;6.03;;
5989;SDS011;14149;53.562;10.032;2022-09-21T18:10:38;10.47;;;5.47;;
5989;SDS011;14149;53.562;10.032;2022-09-21T18:18:06;11.00;;;4.50;;
5989;SDS011;14149;53.562;10.032;2022-09-21T18:23:14;12.30;;;5.27;;
5989;SDS011;14149;53.562;10.032;2022-09-21T18:25:43;13.60;;;5.40;;